Time;durP1;ratioP1;P1;durP2;ratioP2;P2;SDS_P1;SDS_P2;PMS_P1;PMS_P2;Temp;Humidity;BMP_temperature;BMP_pressure;BME280_temperature;BME280_humidity;BME280_pressure;Samples;Min_cycle;Max_cycle;Signal;HPM_P1;HPM_P2
2023/09/23 00:02:11;;;;;;;7.70;3.90;;;12.40;99.90;;;;;;7374004;19;20022;-72
2023/09/23 00:04:37;;;;;;;5.60;2.85;;;12.40;99.90;;;;;;7375656;19;20038;-72
2023/09/23 00:07:04;;;;;;;5.63;3.70;;;12.40;99.90;;;;;;7371688;19;20337;-71
2023/09/23 00:09:31;;;;;;;5.50;2.83;;;12.40;99.90;;;;;;7368162;19;20347;-72
2023/09/23 00:12:18;;;;;;;3.42;3.08;;;12.40;99.90;;;;;;7366712;19;20014;-72
2023/09/23 00:14:44;;;;;;;4.70;3.08;;;12.40;99.90;;;;;;7376358;19;20041;-71
2023/09/23 00:17:11;;;;;;;5.63;3.15;;;12.30;99.90;;;;;;7373684;19;20022;-72
2023/09/23 00:19:40;;;;;;;5.63;3.45;;;12.30;99.90;;;;;;7376543;19;20541;-73
2023/09/23 00:22:06;;;;;;;4.25;3.35;;;12.30;99.90;;;;;;7375847;19;20006;-72
2023/09/23 00:24:33;;;;;;;3.90;3.33;;;12.30;99.90;;;;;;7375950;19;20022;-70
2023/09/23 00:27:02;;;;;;;5.45;3.95;;;12.30;99.90;;;;;;7373064;19;20021;-71
2023/09/23 00:29:28;;;;;;;4.97;4.32;;;12.30;99.90;;;;;;7378019;19;20032;-70
2023/09/23 00:31:55;;;;;;;5.93;4.88;;;12.30;99.90;;;;;;7376848;19;20504;-72
2023/09/23 00:34:23;;;;;;;6.75;5.22;;;12.30;99.90;;;;;;7367953;19;20014;-73
2023/09/23 00:36:51;;;;;;;10.18;5.95;;;12.30;99.90;;;;;;7375350;19;20808;-60
2023/09/23 00:39:17;;;;;;;7.18;5.80;;;12.30;99.90;;;;;;7371573;19;20119;-71
2023/09/23 00:41:44;;;;;;;6.95;6.25;;;12.30;99.90;;;;;;7373903;19;20018;-73
2023/09/23 00:44:10;;;;;;;7.22;6.45;;;12.30;99.90;;;;;;7373183;19;20025;-73
2023/09/23 00:46:38;;;;;;;8.57;7.13;;;12.30;99.90;;;;;;7371134;19;20500;-60
2023/09/23 00:49:07;;;;;;;7.00;6.30;;;12.30;99.90;;;;;;7374179;19;20798;-73
2023/09/23 00:51:34;;;;;;;6.50;5.70;;;12.30;99.90;;;;;;7372199;19;20141;-73
2023/09/23 00:54:07;;;;;;;7.40;5.97;;;12.30;99.90;;;;;;7372981;19;20026;-73
2023/09/23 00:56:36;;;;;;;7.72;6.40;;;12.30;99.90;;;;;;7370847;19;20025;-60
2023/09/23 00:59:06;;;;;;;7.57;5.68;;;12.30;99.90;;;;;;7366127;19;20453;-73
2023/09/23 01:01:32;;;;;;;6.60;5.40;;;12.30;99.90;;;;;;7371647;19;20014;-72
2023/09/23 01:04:00;;;;;;;10.70;4.53;;;12.20;99.90;;;;;;7371676;19;20025;-72
2023/09/23 01:06:28;;;;;;;4.43;3.70;;;12.20;99.90;;;;;;7371998;19;20477;-72
2023/09/23 01:08:57;;;;;;;5.72;3.65;;;12.20;99.90;;;;;;7374363;19;20058;-72
2023/09/23 01:11:25;;;;;;;3.70;3.10;;;12.20;99.90;;;;;;7372140;19;20025;-72
2023/09/23 01:13:53;;;;;;;4.78;2.83;;;12.20;99.90;;;;;;7368592;19;20767;-73
2023/09/23 01:16:21;;;;;;;2.88;2.10;;;12.10;99.90;;;;;;7365689;19;20044;-60
2023/09/23 01:18:49;;;;;;;5.57;2.47;;;12.10;99.90;;;;;;7365594;19;20020;-60
2023/09/23 01:21:16;;;;;;;3.40;2.20;;;12.10;99.90;;;;;;7368734;19;20032;-60
2023/09/23 01:23:44;;;;;;;4.82;2.30;;;12.10;99.90;;;;;;7364874;19;20522;-60
2023/09/23 01:26:11;;;;;;;3.95;2.47;;;12.10;99.90;;;;;;7369790;19;20018;-60
2023/09/23 01:28:39;;;;;;;3.05;2.22;;;12.10;99.90;;;;;;7369548;19;20021;-60
2023/09/23 01:31:07;;;;;;;3.65;2.20;;;12.10;99.90;;;;;;7371719;19;20477;-59
2023/09/23 01:33:34;;;;;;;2.70;2.00;;;12.10;99.90;;;;;;7366087;19;20017;-60
2023/09/23 01:36:03;;;;;;;4.50;2.20;;;12.10;99.90;;;;;;7367222;19;20011;-60
2023/09/23 01:38:30;;;;;;;3.92;2.22;;;12.10;99.90;;;;;;7367577;19;20018;-60
2023/09/23 01:40:56;;;;;;;3.95;2.00;;;12.10;99.90;;;;;;7369136;19;20011;-60
2023/09/23 01:43:22;;;;;;;3.20;1.50;;;12.10;99.90;;;;;;7369066;19;20014;-60
2023/09/23 01:45:49;;;;;;;4.60;2.20;;;12.10;99.90;;;;;;7370874;19;20022;-61
2023/09/23 01:48:15;;;;;;;3.65;2.50;;;12.10;99.90;;;;;;7370143;19;20026;-60
2023/09/23 01:50:41;;;;;;;4.38;2.95;;;12.10;99.90;;;;;;7369789;19;20354;-60
2023/09/23 01:53:08;;;;;;;4.90;3.45;;;12.10;99.90;;;;;;7363906;19;20384;-59
2023/09/23 01:55:34;;;;;;;5.85;4.05;;;12.10;99.90;;;;;;7370050;19;20038;-59
2023/09/23 01:58:01;;;;;;;6.30;4.97;;;12.10;99.90;;;;;;7362147;19;20034;-60
2023/09/23 02:00:29;;;;;;;6.80;5.38;;;12.10;99.90;;;;;;7372403;19;20025;-60
2023/09/23 02:02:56;;;;;;;7.45;5.45;;;12.10;99.90;;;;;;7367620;19;20132;-60
2023/09/23 02:05:24;;;;;;;8.07;5.47;;;12.10;99.90;;;;;;7365824;19;20398;-60
2023/09/23 02:08:10;;;;;;;12.75;6.82;;;12.10;99.90;;;;;;7364568;19;20024;-60
2023/09/23 02:10:36;;;;;;;8.90;8.00;;;12.10;99.90;;;;;;7369247;19;20023;-60
2023/09/23 02:13:02;;;;;;;8.55;7.65;;;12.10;99.90;;;;;;7363785;19;20037;-60
2023/09/23 02:15:30;;;;;;;12.30;7.53;;;12.10;99.90;;;;;;7371559;19;20021;-60
2023/09/23 02:17:56;;;;;;;12.85;8.18;;;12.10;99.90;;;;;;7367891;19;20038;-59
2023/09/23 02:20:22;;;;;;;11.40;7.95;;;12.10;99.90;;;;;;7369815;19;20022;-72
2023/09/23 02:22:53;;;;;;;10.60;8.18;;;12.10;99.90;;;;;;7370522;19;20025;-60
2023/09/23 02:25:19;;;;;;;9.63;8.63;;;12.00;99.90;;;;;;7371188;19;20022;-73
2023/09/23 02:27:46;;;;;;;10.43;8.73;;;12.00;99.90;;;;;;7361807;19;20487;-59
2023/09/23 02:30:13;;;;;;;10.00;9.00;;;12.00;99.90;;;;;;7364754;19;20018;-59
2023/09/23 02:32:42;;;;;;;12.23;9.23;;;11.90;99.90;;;;;;7366157;19;20022;-60
2023/09/23 02:35:13;;;;;;;11.25;9.85;;;11.80;99.90;;;;;;7369924;19;20014;-60
2023/09/23 02:37:42;;;;;;;10.25;8.65;;;11.80;99.90;;;;;;7368170;19;20018;-60
2023/09/23 02:40:12;;;;;;;10.95;9.15;;;11.70;99.90;;;;;;7368977;19;20465;-60
2023/09/23 02:42:40;;;;;;;11.77;10.05;;;11.60;99.90;;;;;;7363040;19;20086;-60
2023/09/23 02:45:12;;;;;;;11.45;9.40;;;11.50;99.90;;;;;;7368411;19;20086;-73
2023/09/23 02:47:39;;;;;;;13.60;10.10;;;11.50;99.90;;;;;;7372939;19;20031;-73
2023/09/23 02:50:10;;;;;;;10.77;9.52;;;11.40;99.90;;;;;;7369498;19;20038;-73
2023/09/23 02:52:38;;;;;;;11.05;9.85;;;11.40;99.90;;;;;;7371083;19;20006;-73
2023/09/23 02:55:12;;;;;;;12.02;9.85;;;11.20;99.90;;;;;;7372559;19;20501;-73
2023/09/23 02:57:49;;;;;;;12.88;10.35;;;11.20;99.90;;;;;;7368138;19;20039;-73
2023/09/23 03:00:21;;;;;;;12.35;10.55;;;11.20;99.90;;;;;;7370977;19;20422;-73
2023/09/23 03:02:53;;;;;;;14.27;10.32;;;11.10;99.90;;;;;;7372183;19;20593;-72
2023/09/23 03:05:25;;;;;;;16.30;11.50;;;11.10;99.90;;;;;;7370762;19;20508;-73
2023/09/23 03:07:57;;;;;;;14.55;11.27;;;11.00;99.90;;;;;;7370362;19;20639;-73
2023/09/23 03:10:39;;;;;;;15.32;10.43;;;11.00;99.90;;;;;;7368927;19;20015;-72
2023/09/23 03:13:07;;;;;;;11.80;10.25;;;11.00;99.90;;;;;;7369561;19;20102;-73
2023/09/23 03:15:48;;;;;;;11.75;10.40;;;10.90;99.90;;;;;;7371164;19;20423;-73
2023/09/23 03:18:14;;;;;;;12.77;11.10;;;10.80;99.90;;;;;;7366703;19;20034;-73
2023/09/23 03:20:41;;;;;;;12.35;10.85;;;10.80;99.90;;;;;;7367177;19;20018;-73
2023/09/23 03:23:10;;;;;;;14.68;12.48;;;10.80;99.90;;;;;;7373988;19;20018;-73
2023/09/23 03:25:47;;;;;;;15.35;11.75;;;10.70;99.90;;;;;;7375901;19;20046;-73
2023/09/23 03:28:18;;;;;;;14.18;11.48;;;10.70;99.90;;;;;;7375025;19;20057;-73
2023/09/23 03:30:48;;;;;;;13.93;12.20;;;10.70;99.90;;;;;;7377406;19;20018;-73
2023/09/23 03:33:21;;;;;;;17.05;11.75;;;10.70;99.90;;;;;;7373603;19;20812;-73
2023/09/23 03:35:49;;;;;;;15.30;12.10;;;10.60;99.90;;;;;;7374583;19;20022;-73
2023/09/23 03:38:15;;;;;;;14.10;12.60;;;10.60;99.90;;;;;;7374777;19;20040;-73
2023/09/23 03:40:50;;;;;;;15.88;11.98;;;10.60;99.90;;;;;;7377101;19;20022;-73
2023/09/23 03:43:19;;;;;;;15.30;12.55;;;10.50;99.90;;;;;;7373270;19;20018;-71
2023/09/23 03:45:47;;;;;;;15.00;12.95;;;10.50;99.90;;;;;;7374621;19;20656;-72
2023/09/23 03:48:15;;;;;;;15.23;12.98;;;10.40;99.90;;;;;;7374381;19;20026;-72
2023/09/23 03:50:41;;;;;;;17.13;13.05;;;10.40;99.90;;;;;;7380290;19;20769;-73
2023/09/23 03:53:07;;;;;;;15.25;12.85;;;10.30;99.90;;;;;;7376436;19;20441;-72
2023/09/23 03:55:33;;;;;;;17.65;13.65;;;10.40;99.90;;;;;;7379051;19;20018;-72
2023/09/23 03:58:04;;;;;;;15.35;12.95;;;10.30;99.90;;;;;;7376131;19;20481;-72
2023/09/23 04:00:34;;;;;;;17.98;13.82;;;10.30;99.90;;;;;;7377291;19;20881;-72
2023/09/23 04:03:00;;;;;;;19.73;15.00;;;10.30;99.90;;;;;;7376352;19;20501;-72
2023/09/23 04:05:28;;;;;;;18.20;14.77;;;10.30;99.90;;;;;;7380084;19;20035;-72
2023/09/23 04:07:54;;;;;;;20.23;15.48;;;10.40;99.90;;;;;;7379463;19;20018;-72
2023/09/23 04:10:24;;;;;;;21.80;15.93;;;10.40;99.90;;;;;;7375834;19;20390;-72
2023/09/23 04:12:51;;;;;;;21.48;16.50;;;10.50;99.90;;;;;;7377965;19;20094;-72
2023/09/23 04:15:19;;;;;;;20.67;15.23;;;10.50;99.90;;;;;;7379166;19;20568;-72
2023/09/23 04:17:47;;;;;;;23.25;17.65;;;10.50;99.90;;;;;;7372532;19;20002;-72
2023/09/23 04:20:14;;;;;;;21.75;17.35;;;10.60;99.90;;;;;;7376540;19;20090;-73
2023/09/23 04:22:42;;;;;;;23.00;18.98;;;10.60;99.90;;;;;;7372312;19;20593;-60
2023/09/23 04:25:09;;;;;;;21.83;18.00;;;10.70;99.90;;;;;;7371200;19;20107;-60
2023/09/23 04:27:36;;;;;;;22.48;17.85;;;10.70;99.90;;;;;;7367028;19;20386;-60
2023/09/23 04:30:07;;;;;;;21.08;17.80;;;10.70;99.90;;;;;;7372063;19;20025;-60
2023/09/23 04:32:56;;;;;;;21.55;17.75;;;10.70;99.90;;;;;;7369946;19;20391;-60
2023/09/23 04:35:23;;;;;;;25.95;19.13;;;10.70;99.90;;;;;;7369312;19;20606;-60
2023/09/23 04:37:49;;;;;;;23.52;18.63;;;10.70;99.90;;;;;;7371113;19;20022;-60
2023/09/23 04:40:15;;;;;;;23.63;21.02;;;10.70;99.90;;;;;;7368718;19;20023;-60
2023/09/23 04:42:43;;;;;;;22.15;19.67;;;10.70;99.90;;;;;;7371774;19;20494;-59
2023/09/23 04:45:11;;;;;;;21.48;18.98;;;10.70;99.90;;;;;;7367930;19;20103;-71
2023/09/23 04:47:38;;;;;;;23.02;18.85;;;10.70;99.90;;;;;;7375316;19;20046;-72
2023/09/23 04:50:07;;;;;;;23.42;18.67;;;10.70;99.90;;;;;;7367433;19;20717;-73
2023/09/23 04:52:34;;;;;;;22.05;18.48;;;10.60;99.90;;;;;;7372720;19;20019;-74
2023/09/23 04:55:01;;;;;;;20.75;16.95;;;10.60;99.90;;;;;;7373350;19;20053;-72
2023/09/23 04:57:27;;;;;;;21.95;19.58;;;10.60;99.90;;;;;;7374932;19;20027;-72
2023/09/23 04:59:54;;;;;;;23.00;19.52;;;10.60;99.90;;;;;;7371055;19;20023;-72
2023/09/23 05:02:21;;;;;;;26.85;20.77;;;10.50;99.90;;;;;;7374818;19;20014;-72
2023/09/23 05:04:48;;;;;;;26.02;21.02;;;10.50;99.90;;;;;;7377703;19;20025;-72
2023/09/23 05:07:14;;;;;;;25.75;21.08;;;10.50;99.90;;;;;;7377757;19;20065;-61
2023/09/23 05:09:41;;;;;;;28.67;22.17;;;10.50;99.90;;;;;;7368756;19;20022;-60
2023/09/23 05:12:11;;;;;;;31.80;23.83;;;10.50;99.90;;;;;;7371303;19;20488;-60
2023/09/23 05:14:40;;;;;;;33.30;24.55;;;10.50;99.90;;;;;;7373627;19;20029;-60
2023/09/23 05:17:06;;;;;;;31.75;24.70;;;10.50;99.90;;;;;;7370698;19;20015;-61
2023/09/23 05:19:33;;;;;;;31.50;25.42;;;10.60;99.90;;;;;;7364947;19;20044;-60
2023/09/23 05:22:00;;;;;;;38.10;27.00;;;10.60;99.90;;;;;;7375156;19;20077;-59
2023/09/23 05:24:27;;;;;;;38.38;28.13;;;10.70;99.90;;;;;;7365125;19;20473;-60
2023/09/23 05:26:55;;;;;;;41.10;28.10;;;10.70;99.90;;;;;;7372309;19;20468;-73
2023/09/23 05:29:24;;;;;;;42.45;29.45;;;10.80;99.90;;;;;;7365708;19;20541;-61
2023/09/23 05:31:50;;;;;;;49.75;32.33;;;10.80;99.90;;;;;;7369620;19;20454;-60
2023/09/23 05:34:20;;;;;;;47.80;32.65;;;10.90;99.90;;;;;;7361658;19;20021;-60
2023/09/23 05:36:47;;;;;;;46.72;33.20;;;10.90;99.90;;;;;;7369897;19;20111;-60
2023/09/23 05:39:18;;;;;;;53.75;34.55;;;11.00;99.90;;;;;;7364521;19;20025;-60
2023/09/23 05:42:04;;;;;;;55.05;36.53;;;11.00;99.90;;;;;;7369162;19;20394;-61
2023/09/23 05:44:30;;;;;;;46.97;34.95;;;11.10;99.90;;;;;;7372160;19;20045;-73
2023/09/23 05:46:57;;;;;;;54.65;39.65;;;11.10;99.90;;;;;;7372142;19;20018;-73
2023/09/23 05:49:23;;;;;;;53.65;38.72;;;11.10;99.90;;;;;;7368547;19;20019;-73
2023/09/23 05:51:54;;;;;;;56.03;40.38;;;11.20;99.90;;;;;;7369674;19;20301;-72
2023/09/23 05:54:20;;;;;;;55.85;40.60;;;11.20;99.90;;;;;;7366119;19;20135;-72
2023/09/23 05:56:46;;;;;;;52.55;38.55;;;11.20;99.90;;;;;;7376608;19;20514;-60
2023/09/23 05:59:13;;;;;;;54.88;38.03;;;11.30;99.90;;;;;;7366615;19;20022;-71
2023/09/23 06:01:40;;;;;;;54.85;40.55;;;11.30;99.90;;;;;;7370326;19;20026;-71
2023/09/23 06:04:09;;;;;;;49.95;39.72;;;11.30;99.90;;;;;;7373570;19;20486;-73
2023/09/23 06:06:39;;;;;;;50.72;38.20;;;11.30;99.90;;;;;;7369947;19;20021;-60
2023/09/23 06:09:08;;;;;;;52.75;38.97;;;11.30;99.90;;;;;;7366338;19;20457;-60
2023/09/23 06:11:35;;;;;;;56.83;41.03;;;11.30;99.90;;;;;;7369592;19;20510;-61
2023/09/23 06:14:01;;;;;;;60.63;42.15;;;11.30;99.90;;;;;;7361088;19;20939;-58
2023/09/23 06:16:27;;;;;;;51.13;40.70;;;11.30;99.90;;;;;;7362286;19;20022;-60
2023/09/23 06:18:54;;;;;;;51.70;39.53;;;11.30;99.90;;;;;;7365954;19;20490;-60
2023/09/23 06:21:21;;;;;;;55.20;40.83;;;11.30;99.90;;;;;;7367937;19;20090;-60
2023/09/23 06:23:47;;;;;;;55.88;40.85;;;11.30;99.90;;;;;;7363068;19;20483;-60
2023/09/23 06:26:13;;;;;;;51.53;39.25;;;11.30;99.90;;;;;;7366285;19;20022;-60
2023/09/23 06:28:40;;;;;;;63.90;48.78;;;11.40;99.90;;;;;;7366880;19;20022;-63
2023/09/23 06:31:10;;;;;;;65.25;54.10;;;11.50;99.90;;;;;;7366264;19;20074;-62
2023/09/23 06:33:37;;;;;;;70.68;59.95;;;11.60;99.90;;;;;;7364466;19;20018;-67
2023/09/23 06:36:05;;;;;;;60.08;50.70;;;11.70;99.90;;;;;;7365755;19;20022;-68
2023/09/23 06:38:32;;;;;;;47.70;40.55;;;11.80;99.90;;;;;;7362691;19;20449;-69
2023/09/23 06:40:59;;;;;;;48.47;39.00;;;12.00;99.90;;;;;;7371283;19;20019;-62
2023/09/23 06:47:48;;;;;;;50.88;38.45;;;12.10;99.90;;;;;;7372241;19;20026;-62
2023/09/23 06:50:16;;;;;;;44.45;39.08;;;12.30;99.90;;;;;;7369545;19;20033;-64
2023/09/23 06:52:42;;;;;;;40.65;36.28;;;12.50;99.90;;;;;;7366439;19;20021;-63
2023/09/23 06:55:09;;;;;;;38.22;34.13;;;12.70;99.90;;;;;;7370285;19;20102;-63
2023/09/23 06:57:35;;;;;;;35.15;31.23;;;12.80;99.90;;;;;;7370846;19;20019;-61
2023/09/23 07:00:07;;;;;;;34.00;30.38;;;12.80;99.90;;;;;;7376886;19;20042;-62
2023/09/23 07:02:34;;;;;;;32.13;28.48;;;12.90;99.90;;;;;;7371766;19;20024;-71
2023/09/23 07:05:03;;;;;;;31.35;28.05;;;13.00;99.90;;;;;;7376692;19;20026;-61
2023/09/23 07:07:31;;;;;;;33.35;30.10;;;13.10;99.90;;;;;;7372602;19;20023;-63
2023/09/23 07:09:57;;;;;;;31.52;28.40;;;13.30;99.90;;;;;;7377174;19;20098;-63
2023/09/23 07:12:24;;;;;;;30.73;27.58;;;13.60;99.90;;;;;;7372927;19;20019;-64
2023/09/23 07:14:50;;;;;;;117.72;105.53;;;13.60;99.90;;;;;;7375726;19;20078;-70
2023/09/23 07:17:17;;;;;;;62.03;55.53;;;13.70;99.90;;;;;;7375018;19;20029;-67
2023/09/23 07:19:47;;;;;;;60.30;53.80;;;13.80;99.90;;;;;;7375668;19;20825;-68
2023/09/23 07:22:14;;;;;;;42.33;38.00;;;13.60;99.90;;;;;;7373635;19;20136;-65
2023/09/23 07:24:40;;;;;;;29.55;26.55;;;13.50;99.90;;;;;;7376057;19;20377;-68
2023/09/23 07:27:07;;;;;;;28.58;25.65;;;13.40;99.90;;;;;;7377158;19;20026;-69
2023/09/23 07:29:33;;;;;;;30.85;27.63;;;13.50;99.90;;;;;;7377341;19;20453;-69
2023/09/23 07:32:02;;;;;;;29.27;26.38;;;13.60;99.90;;;;;;7378840;19;20019;-69
2023/09/23 07:34:29;;;;;;;29.33;26.27;;;13.70;99.90;;;;;;7376575;19;20356;-74
2023/09/23 07:36:56;;;;;;;96.05;86.15;;;14.00;99.90;;;;;;7374871;19;20018;-65
2023/09/23 07:39:22;;;;;;;65.20;58.45;;;14.30;99.90;;;;;;7376001;19;20018;-71
2023/09/23 07:41:48;;;;;;;29.88;26.95;;;14.50;99.90;;;;;;7382288;19;20029;-70
2023/09/23 07:44:15;;;;;;;28.48;25.65;;;14.70;99.90;;;;;;7379847;19;20019;-65
2023/09/23 07:46:42;;;;;;;32.50;29.40;;;14.70;99.90;;;;;;7380229;19;20014;-69
2023/09/23 07:49:08;;;;;;;27.63;24.98;;;14.70;99.90;;;;;;7380841;19;20018;-65
2023/09/23 07:51:37;;;;;;;24.50;22.10;;;14.90;99.90;;;;;;7374439;19;20022;-66
2023/09/23 07:54:03;;;;;;;23.60;21.40;;;14.90;99.90;;;;;;7376067;19;20477;-69
2023/09/23 07:56:30;;;;;;;22.38;20.27;;;15.40;99.90;;;;;;7374617;19;20014;-70
2023/09/23 07:58:56;;;;;;;21.73;19.63;;;15.70;99.90;;;;;;7379483;19;20500;-63
2023/09/23 08:01:23;;;;;;;22.17;19.90;;;16.20;99.90;;;;;;7371505;19;20430;-63
2023/09/23 08:03:52;;;;;;;41.75;37.70;;;16.70;99.90;;;;;;7376068;19;20537;-64
2023/09/23 08:06:18;;;;;;;44.22;39.80;;;17.40;99.90;;;;;;7374988;19;20563;-63
2023/09/23 08:08:44;;;;;;;56.03;50.53;;;17.80;99.90;;;;;;7376037;19;20082;-68
2023/09/23 08:11:32;;;;;;;23.52;21.33;;;18.00;99.90;;;;;;7374377;19;20509;-67
2023/09/23 08:13:58;;;;;;;25.17;22.67;;;18.20;99.90;;;;;;7376796;19;20022;-67
2023/09/23 08:16:26;;;;;;;24.05;21.85;;;18.50;99.90;;;;;;7379175;19;20015;-68
2023/09/23 08:18:52;;;;;;;20.70;18.77;;;17.70;99.90;;;;;;7377378;19;20018;-67
2023/09/23 08:21:18;;;;;;;20.00;18.05;;;17.30;99.90;;;;;;7378190;19;20022;-67
2023/09/23 08:23:46;;;;;;;19.10;17.30;;;16.90;99.90;;;;;;7379358;19;20384;-65
2023/09/23 08:26:12;;;;;;;27.00;24.17;;;16.50;99.90;;;;;;7379401;19;20018;-67
2023/09/23 08:28:39;;;;;;;29.67;26.65;;;16.40;99.90;;;;;;7374035;19;20473;-69
2023/09/23 08:31:05;;;;;;;19.33;17.40;;;16.70;99.90;;;;;;7372658;19;20403;-68
2023/09/23 08:33:32;;;;;;;32.47;29.25;;;17.10;99.90;;;;;;7370153;19;20037;-69
2023/09/23 08:35:58;;;;;;;23.73;21.38;;;16.90;99.90;;;;;;7372209;19;20402;-69
2023/09/23 08:38:27;;;;;;;17.80;16.25;;;17.40;99.90;;;;;;7372836;19;20019;-69
2023/09/23 08:40:53;;;;;;;17.50;15.75;;;17.70;99.90;;;;;;7375881;19;20014;-69
2023/09/23 08:43:36;;;;;;;17.00;15.38;;;18.10;99.90;;;;;;7372202;19;20032;-69
2023/09/23 08:46:07;;;;;;;15.57;13.95;;;18.30;99.90;;;;;;7374561;19;20430;-72
2023/09/23 08:48:35;;;;;;;18.38;13.40;;;18.90;99.90;;;;;;7373443;19;20014;-68
2023/09/23 08:51:06;;;;;;;13.55;12.15;;;18.70;99.90;;;;;;7370698;19;20018;-63
2023/09/23 08:53:38;;;;;;;13.00;11.45;;;18.90;99.90;;;;;;7370282;19;20018;-63
2023/09/23 08:56:25;;;;;;;12.90;11.57;;;19.00;99.90;;;;;;7374795;19;20026;-64
2023/09/23 08:58:51;;;;;;;10.93;9.93;;;19.00;99.90;;;;;;7368778;19;20021;-64
2023/09/23 09:01:18;;;;;;;11.50;10.48;;;19.30;99.90;;;;;;7369755;19;20014;-63
2023/09/23 09:03:45;;;;;;;11.77;10.60;;;19.60;99.90;;;;;;7372198;19;20022;-64
2023/09/23 09:06:29;;;;;;;11.57;10.55;;;20.20;99.90;;;;;;7371400;19;20032;-64
2023/09/23 09:08:56;;;;;;;13.43;9.68;;;20.30;99.90;;;;;;7373981;19;20041;-63
2023/09/23 09:11:26;;;;;;;11.05;10.00;;;20.40;99.90;;;;;;7369680;19;20018;-61
2023/09/23 09:13:53;;;;;;;68.17;61.27;;;19.70;99.90;;;;;;7372872;19;20015;-63
2023/09/23 09:16:20;;;;;;;50.28;45.15;;;19.40;99.90;;;;;;7373693;19;20032;-63
2023/09/23 09:18:51;;;;;;;12.45;11.25;;;20.00;99.90;;;;;;7372453;19;20022;-63
2023/09/23 09:21:17;;;;;;;11.02;9.93;;;20.20;99.90;;;;;;7373638;19;20018;-62
2023/09/23 09:23:44;;;;;;;12.30;11.10;;;20.40;99.90;;;;;;7373676;19;20394;-63
2023/09/23 09:26:12;;;;;;;13.10;10.65;;;21.00;99.90;;;;;;7375315;19;20014;-63
2023/09/23 09:28:39;;;;;;;13.15;11.77;;;21.10;99.90;;;;;;7370555;19;20011;-62
2023/09/23 09:31:09;;;;;;;11.30;10.07;;;20.70;99.90;;;;;;7375051;19;20377;-62
2023/09/23 09:33:37;;;;;;;9.73;8.77;;;19.80;99.90;;;;;;7366111;19;20043;-62
2023/09/23 09:36:07;;;;;;;11.52;9.20;;;19.40;99.90;;;;;;7370318;19;20028;-62
2023/09/23 09:38:36;;;;;;;11.48;9.75;;;18.80;99.90;;;;;;7365548;19;20508;-62
2023/09/23 09:41:14;;;;;;;9.82;7.20;;;19.30;99.90;;;;;;7212363;19;3713833;-63
2023/09/23 09:43:44;;;;;;;9.07;7.32;;;19.90;99.90;;;;;;7401997;19;20361;-63
2023/09/23 09:46:13;;;;;;;8.85;7.40;;;19.90;99.90;;;;;;7404335;19;20489;-62
2023/09/23 09:48:41;;;;;;;10.85;9.35;;;19.50;99.90;;;;;;7405281;19;20014;-61
2023/09/23 09:51:09;;;;;;;14.18;11.30;;;19.10;99.90;;;;;;7406397;19;20033;-61
2023/09/23 09:53:39;;;;;;;33.50;29.20;;;18.40;99.90;;;;;;7403845;19;20113;-62
2023/09/23 09:56:06;;;;;;;14.87;13.10;;;18.20;99.90;;;;;;7401352;19;20891;-62
2023/09/23 09:58:39;;;;;;;9.55;8.55;;;18.80;99.90;;;;;;7403081;19;20105;-63
2023/09/23 10:01:11;;;;;;;14.05;12.48;;;19.30;99.90;;;;;;7399713;19;20488;-62
2023/09/23 10:03:39;;;;;;;11.80;6.75;;;19.40;99.90;;;;;;7404919;19;20074;-62
2023/09/23 10:06:07;;;;;;;8.45;6.93;;;19.30;99.90;;;;;;7405052;19;20015;-62
2023/09/23 10:08:38;;;;;;;9.07;7.13;;;19.30;99.90;;;;;;7402887;19;20047;-62
2023/09/23 10:11:08;;;;;;;8.65;7.15;;;18.80;99.90;;;;;;7404111;19;20039;-62
2023/09/23 10:13:36;;;;;;;8.25;6.20;;;18.70;99.90;;;;;;7403403;19;20338;-62
2023/09/23 10:16:29;;;;;;;8.18;5.30;;;19.10;99.90;;;;;;7406711;19;20373;-62
2023/09/23 10:19:19;;;;;;;7.50;5.72;;;19.90;99.90;;;;;;7400427;19;20661;-62
2023/09/23 10:21:47;;;;;;;6.88;4.47;;;20.30;99.90;;;;;;7404724;19;20014;-62
2023/09/23 10:24:21;;;;;;;8.77;5.95;;;20.10;99.90;;;;;;7403072;19;20022;-62
2023/09/23 10:26:47;;;;;;;10.50;5.07;;;20.00;99.90;;;;;;7404767;19;20482;-62
2023/09/23 10:29:13;;;;;;;7.22;4.25;;;19.60;99.90;;;;;;7405908;19;20018;-62
2023/09/23 10:31:41;;;;;;;8.85;3.80;;;19.20;99.90;;;;;;7406957;19;20014;-62
2023/09/23 10:34:10;;;;;;;6.18;3.05;;;19.50;99.90;;;;;;7404830;19;20428;-62
2023/09/23 10:36:40;;;;;;;6.82;3.17;;;19.90;99.90;;;;;;7405186;19;20849;-62
2023/09/23 10:39:15;;;;;;;5.20;2.85;;;20.70;99.90;;;;;;7405061;19;20033;-61
2023/09/23 10:41:44;;;;;;;6.25;2.40;;;21.00;99.90;;;;;;7404290;19;20552;-62
2023/09/23 10:44:11;;;;;;;5.03;2.40;;;21.20;99.90;;;;;;7399614;19;20539;-69
2023/09/23 10:46:38;;;;;;;5.63;2.40;;;21.20;99.90;;;;;;7401939;19;20841;-69
2023/09/23 10:49:06;;;;;;;3.83;2.28;;;21.00;99.90;;;;;;7403526;19;20041;-69
2023/09/23 10:51:33;;;;;;;7.32;3.05;;;20.60;99.90;;;;;;7384601;19;20022;-70
2023/09/23 10:53:59;;;;;;;18.58;14.05;;;20.60;99.90;;;;;;7374900;19;20516;-68
2023/09/23 10:56:26;;;;;;;11.52;7.53;;;21.00;99.90;;;;;;7374568;19;20015;-70
2023/09/23 10:58:53;;;;;;;12.65;8.50;;;21.50;99.90;;;;;;7375009;19;20018;-70
2023/09/23 11:01:20;;;;;;;7.63;3.33;;;22.30;99.90;;;;;;7372710;19;20024;-70
2023/09/23 11:03:47;;;;;;;8.20;5.03;;;22.90;99.90;;;;;;7370690;19;20025;-70
2023/09/23 11:06:16;;;;;;;9.40;6.55;;;22.60;99.90;;;;;;7373954;19;20481;-70
2023/09/23 11:08:43;;;;;;;9.02;5.35;;;21.80;99.90;;;;;;7377178;19;20089;-70
2023/09/23 11:11:12;;;;;;;6.45;3.00;;;21.10;99.90;;;;;;7376941;19;20035;-70
2023/09/23 11:13:38;;;;;;;10.13;7.25;;;20.70;99.90;;;;;;7373615;19;20014;-70
2023/09/23 11:16:09;;;;;;;26.63;21.70;;;20.00;99.90;;;;;;7375660;19;20018;-68
2023/09/23 11:18:37;;;;;;;8.00;4.07;;;19.60;99.90;;;;;;7371508;19;20013;-69
2023/09/23 11:21:03;;;;;;;7.72;5.68;;;19.20;99.90;;;;;;7371690;19;20056;-69
2023/09/23 11:23:30;;;;;;;7.03;4.15;;;19.20;99.90;;;;;;7369981;19;20014;-70
2023/09/23 11:25:56;;;;;;;10.43;5.60;;;19.40;99.90;;;;;;7370303;19;20018;-69
2023/09/23 11:28:26;;;;;;;7.38;4.60;;;19.60;99.90;;;;;;7370162;19;20013;-70
2023/09/23 11:30:55;;;;;;;7.43;3.55;;;19.80;99.90;;;;;;7371817;19;20533;-69
2023/09/23 11:36:52;;;;;;;6.07;2.15;;;20.60;99.90;;;;;;7370151;19;20107;-70
2023/09/23 11:39:18;;;;;;;6.07;2.60;;;21.00;99.90;;;;;;7370779;19;20026;-70
2023/09/23 11:41:47;;;;;;;6.43;2.80;;;21.10;99.90;;;;;;7374426;19;20010;-71
2023/09/23 11:44:14;;;;;;;6.40;5.13;;;21.70;99.90;;;;;;7373487;19;20019;-69
2023/09/23 11:46:40;;;;;;;8.20;6.07;;;22.00;99.90;;;;;;7371011;19;20513;-70
2023/09/23 11:49:07;;;;;;;10.15;4.43;;;22.10;99.90;;;;;;7369183;19;20025;-69
2023/09/23 11:51:36;;;;;;;14.73;12.48;;;21.50;99.90;;;;;;7369674;19;20492;-69
2023/09/23 11:54:03;;;;;;;5.95;3.45;;;21.50;99.90;;;;;;7371569;19;20114;-68
2023/09/23 11:56:30;;;;;;;6.63;4.15;;;21.70;99.90;;;;;;7368194;19;20046;-68
2023/09/23 11:58:56;;;;;;;8.80;5.07;;;22.10;99.90;;;;;;7370173;19;20018;-68
2023/09/23 12:01:22;;;;;;;4.30;2.10;;;21.80;99.90;;;;;;7372250;19;20018;-69
2023/09/23 12:03:48;;;;;;;4.68;2.75;;;21.80;99.90;;;;;;7365646;19;20628;-69
2023/09/23 12:06:16;;;;;;;2.95;1.55;;;22.10;99.90;;;;;;7368203;19;20388;-69
2023/09/23 12:08:42;;;;;;;4.70;1.98;;;22.40;99.90;;;;;;7371506;19;20524;-69
2023/09/23 12:11:09;;;;;;;4.82;1.75;;;22.40;99.90;;;;;;7369646;19;20505;-69
2023/09/23 12:13:35;;;;;;;5.40;1.88;;;21.70;99.90;;;;;;7370090;19;20018;-70
2023/09/23 12:16:01;;;;;;;4.28;1.70;;;21.00;99.90;;;;;;7369161;19;21110;-70
2023/09/23 12:18:28;;;;;;;4.68;1.60;;;20.40;99.90;;;;;;7364244;19;20007;-69
2023/09/23 12:20:54;;;;;;;4.13;1.70;;;19.70;99.90;;;;;;7367381;19;20382;-70
2023/09/23 12:23:20;;;;;;;5.00;2.13;;;19.30;99.90;;;;;;7365998;19;20476;-70
2023/09/23 12:25:46;;;;;;;4.00;1.38;;;18.80;99.90;;;;;;7374319;19;20011;-71
2023/09/23 12:28:13;;;;;;;5.47;1.25;;;18.60;99.90;;;;;;7369878;19;20011;-71
2023/09/23 12:30:39;;;;;;;3.40;1.52;;;18.60;99.90;;;;;;7368632;19;20548;-70
2023/09/23 12:33:05;;;;;;;5.03;1.70;;;18.40;99.90;;;;;;7368918;19;20030;-70
2023/09/23 12:35:32;;;;;;;3.67;2.08;;;18.10;99.90;;;;;;7368523;19;20631;-69
2023/09/23 12:37:58;;;;;;;8.18;2.17;;;17.80;99.90;;;;;;7369810;19;20021;-70
2023/09/23 12:40:25;;;;;;;4.53;1.85;;;17.60;99.90;;;;;;7368045;19;20023;-71
2023/09/23 12:42:51;;;;;;;24.25;21.67;;;17.40;99.90;;;;;;7370177;19;20015;-69
2023/09/23 12:45:18;;;;;;;5.13;2.15;;;17.60;99.90;;;;;;7367400;19;20467;-69
2023/09/23 12:47:45;;;;;;;4.55;1.83;;;18.50;99.90;;;;;;7370825;19;20489;-70
2023/09/23 12:50:12;;;;;;;4.03;1.95;;;19.50;99.90;;;;;;7371034;19;20014;-69